Time;durP1;ratioP1;P1;durP2;ratioP2;P2;SDS_P1;SDS_P2;PMS_P1;PMS_P2;Temp;Humidity;BMP_temperature;BMP_pressure;BME280_temperature;BME280_humidity;BME280_pressure;Samples;Min_cycle;Max_cycle;Signal;HPM_P1;HPM_P2
2020/12/31 00:00:07;;;;;;;2.80;1.50;;;2.70;99.90;;;;;;4994380;28;20448;-64
2020/12/31 00:02:33;;;;;;;1.90;1.80;;;2.70;99.90;;;;;;4994231;28;20468;-65
2020/12/31 00:05:00;;;;;;;1.80;1.70;;;2.70;99.90;;;;;;4994272;28;20444;-64
2020/12/31 00:07:26;;;;;;;2.10;1.87;;;2.70;99.90;;;;;;4994172;28;20444;-65
2020/12/31 00:09:53;;;;;;;2.03;1.53;;;2.70;99.90;;;;;;4994213;28;20448;-65
2020/12/31 00:12:19;;;;;;;2.43;1.57;;;2.70;99.90;;;;;;4994278;28;20461;-65
2020/12/31 00:14:45;;;;;;;1.27;1.17;;;2.70;99.90;;;;;;4994135;28;20820;-66
2020/12/31 00:17:11;;;;;;;1.10;1.00;;;2.60;99.90;;;;;;4994347;28;20448;-69
2020/12/31 00:19:37;;;;;;;1.57;1.47;;;2.50;99.90;;;;;;4994053;28;20814;-69
2020/12/31 00:22:04;;;;;;;1.87;1.53;;;2.40;99.90;;;;;;4993829;28;20469;-69
2020/12/31 00:24:30;;;;;;;1.87;1.77;;;2.30;99.90;;;;;;4993461;28;20449;-69
2020/12/31 00:26:57;;;;;;;2.47;1.73;;;2.20;99.90;;;;;;4993328;28;20909;-69
2020/12/31 00:29:23;;;;;;;3.87;1.87;;;2.10;99.90;;;;;;4993547;28;20426;-70
2020/12/31 00:31:49;;;;;;;2.37;2.13;;;2.00;99.90;;;;;;4993453;28;20451;-70
2020/12/31 00:34:15;;;;;;;3.03;2.53;;;2.00;99.90;;;;;;4993728;28;20455;-70
2020/12/31 00:36:42;;;;;;;2.30;2.00;;;2.00;99.90;;;;;;4993792;28;20469;-65
2020/12/31 00:39:08;;;;;;;2.50;2.30;;;1.90;99.90;;;;;;4994001;28;20426;-65
2020/12/31 00:41:34;;;;;;;2.93;2.10;;;1.70;99.90;;;;;;4993722;28;20415;-66
2020/12/31 00:44:01;;;;;;;2.50;2.30;;;1.70;99.90;;;;;;4993667;28;20828;-66
2020/12/31 00:46:28;;;;;;;3.00;2.60;;;1.80;99.90;;;;;;4975080;28;540887;-66
2020/12/31 00:48:54;;;;;;;2.30;2.10;;;1.80;99.90;;;;;;4994403;28;20423;-66
2020/12/31 00:51:20;;;;;;;2.40;2.20;;;1.80;99.90;;;;;;4994898;28;20445;-68
2020/12/31 00:53:46;;;;;;;2.23;2.03;;;1.70;99.90;;;;;;4994415;28;20459;-69
2020/12/31 00:56:12;;;;;;;3.23;2.93;;;1.70;99.90;;;;;;4993947;28;20448;-70
2020/12/31 00:58:38;;;;;;;3.03;2.20;;;1.70;99.90;;;;;;4994255;28;20475;-69
2020/12/31 01:01:06;;;;;;;3.53;2.80;;;1.80;99.90;;;;;;4994222;28;20458;-69
2020/12/31 01:03:32;;;;;;;3.50;2.93;;;1.80;99.90;;;;;;4994120;28;20447;-70
2020/12/31 01:05:58;;;;;;;3.17;2.80;;;1.80;99.90;;;;;;4993153;28;20937;-70
2020/12/31 01:08:26;;;;;;;2.97;2.67;;;1.90;99.90;;;;;;4994046;28;20478;-69
2020/12/31 01:10:53;;;;;;;3.33;2.77;;;2.00;99.90;;;;;;4993964;28;20453;-69
2020/12/31 01:13:19;;;;;;;4.20;3.10;;;2.00;99.90;;;;;;4993682;28;20459;-69
2020/12/31 01:15:45;;;;;;;2.90;2.50;;;2.10;99.90;;;;;;4994047;28;20444;-69
2020/12/31 01:18:12;;;;;;;2.83;2.63;;;2.10;99.90;;;;;;4993282;28;20858;-69
2020/12/31 01:20:39;;;;;;;2.70;2.50;;;2.10;99.90;;;;;;4993737;28;20445;-70
2020/12/31 01:23:05;;;;;;;4.30;3.53;;;2.10;99.90;;;;;;4993495;28;21041;-70
2020/12/31 01:25:32;;;;;;;3.50;3.10;;;2.10;99.90;;;;;;4993635;28;20819;-70
2020/12/31 01:27:58;;;;;;;3.63;3.10;;;2.10;99.90;;;;;;4993900;28;20444;-65
2020/12/31 01:30:24;;;;;;;4.13;3.23;;;2.10;99.90;;;;;;4993637;28;20950;-69
2020/12/31 01:32:50;;;;;;;3.30;2.80;;;2.10;99.90;;;;;;4993599;28;20480;-69
2020/12/31 01:35:17;;;;;;;3.20;2.80;;;2.10;99.90;;;;;;4993612;28;20444;-69
2020/12/31 01:37:44;;;;;;;5.13;3.13;;;2.20;99.90;;;;;;4993678;28;20448;-65
2020/12/31 01:40:10;;;;;;;3.83;3.43;;;2.20;99.90;;;;;;4993836;28;20478;-65
2020/12/31 01:42:39;;;;;;;3.00;2.73;;;2.20;99.90;;;;;;4993734;28;20439;-65
2020/12/31 01:45:05;;;;;;;3.27;2.90;;;2.20;99.90;;;;;;4993602;28;20456;-66
2020/12/31 01:47:31;;;;;;;4.17;3.40;;;2.20;99.90;;;;;;4993816;28;20407;-65
2020/12/31 01:49:57;;;;;;;4.40;3.47;;;2.10;99.90;;;;;;4993772;28;20424;-64
2020/12/31 01:52:26;;;;;;;4.37;3.33;;;2.10;99.90;;;;;;4993267;28;20464;-65
2020/12/31 01:54:52;;;;;;;3.80;3.10;;;2.10;99.90;;;;;;4993685;28;20450;-65
2020/12/31 01:57:18;;;;;;;3.77;3.03;;;2.10;99.90;;;;;;4993362;28;20423;-70
2020/12/31 01:59:45;;;;;;;4.20;3.10;;;2.10;99.90;;;;;;4993351;28;20476;-70
2020/12/31 02:02:11;;;;;;;6.17;3.30;;;2.20;99.90;;;;;;4993569;28;20445;-70
2020/12/31 02:04:38;;;;;;;4.30;3.53;;;2.10;99.90;;;;;;4993597;28;20859;-70
2020/12/31 02:07:06;;;;;;;3.33;2.87;;;2.10;99.90;;;;;;4993509;28;20800;-70
2020/12/31 02:09:33;;;;;;;4.80;3.23;;;2.00;99.90;;;;;;4993545;28;20452;-70
2020/12/31 02:12:02;;;;;;;3.73;3.43;;;1.90;99.90;;;;;;4993491;28;20444;-70
2020/12/31 02:14:28;;;;;;;6.20;3.70;;;1.80;99.90;;;;;;4993459;28;20571;-70
2020/12/31 02:16:55;;;;;;;3.33;2.87;;;1.80;99.90;;;;;;4995305;28;20791;-70
2020/12/31 02:19:21;;;;;;;4.50;3.47;;;1.70;99.90;;;;;;4997371;28;20444;-70
2020/12/31 02:21:48;;;;;;;2.73;2.53;;;1.70;99.90;;;;;;4997048;28;20579;-69
2020/12/31 02:24:15;;;;;;;5.37;3.37;;;1.80;99.90;;;;;;4996780;28;20915;-65
2020/12/31 02:26:43;;;;;;;3.63;3.33;;;1.70;99.90;;;;;;4996986;28;20440;-65
2020/12/31 02:29:12;;;;;;;4.20;3.30;;;1.60;99.90;;;;;;4997355;28;20463;-65
2020/12/31 02:31:40;;;;;;;5.73;3.57;;;1.60;99.90;;;;;;4996613;28;20937;-65
2020/12/31 02:34:07;;;;;;;4.97;3.23;;;1.60;99.90;;;;;;4996739;28;20480;-65
2020/12/31 02:36:35;;;;;;;4.23;3.90;;;1.60;99.90;;;;;;4996538;28;20423;-65
2020/12/31 02:39:07;;;;;;;5.93;3.43;;;1.50;99.90;;;;;;4996490;28;20970;-65
2020/12/31 02:41:33;;;;;;;4.60;3.80;;;1.60;99.90;;;;;;4996760;28;20468;-66
2020/12/31 02:44:00;;;;;;;4.17;3.40;;;1.50;99.90;;;;;;4996642;28;20439;-64
2020/12/31 02:46:27;;;;;;;4.20;2.87;;;1.50;99.90;;;;;;4996193;28;20480;-66
2020/12/31 02:48:53;;;;;;;4.20;3.50;;;1.40;99.90;;;;;;4996817;28;20448;-65
2020/12/31 02:51:20;;;;;;;4.57;3.90;;;1.30;99.90;;;;;;4996586;28;20521;-65
2020/12/31 02:53:47;;;;;;;4.17;3.40;;;1.30;99.90;;;;;;4996358;28;20487;-65
2020/12/31 02:56:15;;;;;;;3.80;3.27;;;1.30;99.90;;;;;;4996153;28;20448;-66
2020/12/31 02:58:42;;;;;;;4.07;3.67;;;1.20;99.90;;;;;;4996420;28;20453;-64
2020/12/31 03:01:09;;;;;;;4.13;3.20;;;1.10;99.90;;;;;;4996394;28;20445;-65
2020/12/31 03:03:36;;;;;;;2.77;2.50;;;1.10;99.90;;;;;;4996291;28;20467;-65
2020/12/31 03:06:02;;;;;;;6.30;3.77;;;1.10;99.90;;;;;;4996288;28;20448;-65
2020/12/31 03:08:28;;;;;;;4.27;2.30;;;1.00;99.90;;;;;;4996296;28;20430;-65
2020/12/31 03:10:56;;;;;;;3.20;2.30;;;1.00;99.90;;;;;;4995905;28;20469;-65
2020/12/31 03:13:24;;;;;;;3.03;2.80;;;1.00;99.90;;;;;;4995977;28;20534;-65
2020/12/31 03:15:51;;;;;;;2.93;2.20;;;0.90;99.90;;;;;;4996105;28;20448;-64
2020/12/31 03:18:17;;;;;;;2.30;2.10;;;0.90;99.90;;;;;;4996026;28;20456;-65
2020/12/31 03:20:44;;;;;;;2.43;2.23;;;0.80;99.90;;;;;;4996065;28;20422;-64
2020/12/31 03:23:11;;;;;;;4.03;2.60;;;0.80;99.90;;;;;;4988033;28;20464;-65
2020/12/31 03:25:38;;;;;;;2.40;1.93;;;0.80;99.90;;;;;;4995955;28;20473;-65
2020/12/31 03:28:04;;;;;;;3.47;2.63;;;0.80;99.90;;;;;;4994988;28;20456;-67
2020/12/31 03:30:33;;;;;;;2.87;2.60;;;0.80;99.90;;;;;;4995562;28;20498;-69
2020/12/31 03:32:59;;;;;;;3.60;2.57;;;0.80;99.90;;;;;;4995666;28;20458;-69
2020/12/31 03:35:26;;;;;;;3.00;2.23;;;0.80;99.90;;;;;;4995770;28;20448;-70
2020/12/31 03:37:52;;;;;;;3.23;2.20;;;0.80;99.90;;;;;;4995771;28;20840;-65
2020/12/31 03:40:19;;;;;;;2.60;2.40;;;0.80;99.90;;;;;;4995372;28;20499;-65
2020/12/31 03:42:45;;;;;;;2.70;2.43;;;0.80;99.90;;;;;;4995424;28;20498;-68
2020/12/31 03:45:11;;;;;;;2.53;2.33;;;0.80;99.90;;;;;;4995037;28;20460;-69
2020/12/31 03:47:39;;;;;;;1.70;1.60;;;0.70;99.90;;;;;;4995318;28;20403;-69
2020/12/31 03:50:05;;;;;;;2.40;2.20;;;0.70;99.90;;;;;;4995855;28;20455;-69
2020/12/31 03:52:31;;;;;;;4.03;2.20;;;0.70;99.90;;;;;;4994978;28;20653;-69
2020/12/31 03:54:58;;;;;;;3.10;2.10;;;0.70;99.90;;;;;;4994726;28;20858;-68
2020/12/31 03:57:24;;;;;;;2.80;2.43;;;0.70;99.90;;;;;;4994943;28;20427;-68
2020/12/31 03:59:50;;;;;;;2.90;2.30;;;0.60;99.90;;;;;;4995249;28;20448;-69
2020/12/31 04:02:16;;;;;;;2.03;1.87;;;0.60;99.90;;;;;;4994658;28;20818;-68
2020/12/31 04:04:44;;;;;;;4.80;2.13;;;0.50;99.90;;;;;;4994995;28;20826;-68
2020/12/31 04:07:10;;;;;;;2.23;1.77;;;0.50;99.90;;;;;;4986569;28;20852;-68
2020/12/31 04:09:36;;;;;;;2.77;2.10;;;0.50;99.90;;;;;;4994592;28;20485;-68
2020/12/31 04:12:02;;;;;;;2.70;2.50;;;0.50;99.90;;;;;;4994732;28;20460;-68
2020/12/31 04:14:28;;;;;;;2.90;2.00;;;0.40;99.90;;;;;;4994715;28;20502;-68
2020/12/31 04:16:54;;;;;;;2.20;1.87;;;0.40;99.90;;;;;;4994755;28;20448;-65
2020/12/31 04:19:21;;;;;;;2.03;1.87;;;0.40;99.90;;;;;;4994895;28;20448;-65
2020/12/31 04:21:48;;;;;;;2.30;2.07;;;0.30;99.90;;;;;;4994823;28;20444;-65
2020/12/31 04:24:14;;;;;;;2.73;2.53;;;0.30;99.90;;;;;;4994817;28;20502;-65
2020/12/31 04:26:40;;;;;;;4.60;2.40;;;0.30;99.90;;;;;;4994762;28;20448;-68
2020/12/31 04:29:07;;;;;;;2.17;1.63;;;0.40;99.90;;;;;;4994210;28;20455;-68
2020/12/31 04:31:33;;;;;;;2.93;2.43;;;0.40;99.90;;;;;;4994463;28;20448;-66
2020/12/31 04:33:59;;;;;;;2.40;1.83;;;0.40;99.90;;;;;;4994221;28;20549;-65
2020/12/31 04:36:25;;;;;;;2.00;1.60;;;0.40;99.90;;;;;;4994345;28;20828;-66
2020/12/31 04:38:52;;;;;;;4.43;2.90;;;0.50;99.90;;;;;;4995151;28;20430;-69
2020/12/31 04:41:18;;;;;;;3.00;2.20;;;0.60;99.90;;;;;;4994453;28;20452;-68
2020/12/31 04:43:45;;;;;;;1.93;1.80;;;0.70;99.90;;;;;;4994195;28;20435;-65
2020/12/31 04:46:18;;;;;;;2.90;2.20;;;0.70;99.90;;;;;;4994137;28;21012;-65
2020/12/31 04:48:50;;;;;;;3.37;2.17;;;0.70;99.90;;;;;;4994150;28;20414;-65
2020/12/31 04:51:16;;;;;;;1.90;1.70;;;0.70;99.90;;;;;;4994448;28;20437;-65
2020/12/31 04:53:43;;;;;;;2.57;2.37;;;0.70;99.90;;;;;;4994116;28;20863;-65
2020/12/31 04:56:12;;;;;;;3.77;2.33;;;0.70;99.90;;;;;;4994244;28;20499;-68
2020/12/31 04:58:38;;;;;;;2.20;1.90;;;0.70;99.90;;;;;;4993771;28;20798;-68
2020/12/31 05:01:04;;;;;;;2.10;1.90;;;0.70;99.90;;;;;;4994087;28;20456;-68
2020/12/31 05:03:31;;;;;;;2.20;2.00;;;0.70;99.90;;;;;;4993839;28;20439;-69
2020/12/31 05:06:00;;;;;;;2.53;2.33;;;0.60;99.90;;;;;;4994090;28;20479;-69
2020/12/31 05:08:27;;;;;;;2.70;2.13;;;0.50;99.90;;;;;;4994171;28;20423;-68
2020/12/31 05:10:54;;;;;;;1.97;1.70;;;0.50;99.90;;;;;;4994174;28;20423;-66
2020/12/31 05:13:21;;;;;;;2.60;1.43;;;0.50;99.90;;;;;;4993974;28;20487;-69
2020/12/31 05:15:48;;;;;;;3.77;1.87;;;0.50;99.90;;;;;;4994023;28;20438;-67
2020/12/31 05:18:18;;;;;;;2.50;1.80;;;0.50;99.90;;;;;;4993775;28;20419;-68
2020/12/31 05:20:46;;;;;;;3.33;1.57;;;0.40;99.90;;;;;;4993639;28;20423;-67
2020/12/31 05:23:13;;;;;;;2.93;2.30;;;0.40;99.90;;;;;;4993537;28;20497;-67
2020/12/31 05:25:40;;;;;;;2.23;2.07;;;0.30;99.90;;;;;;4993674;28;20427;-68
2020/12/31 05:28:27;;;;;;;2.40;2.07;;;0.30;99.90;;;;;;4994108;28;20477;-67
2020/12/31 05:30:54;;;;;;;1.93;1.83;;;0.40;99.90;;;;;;4993933;28;20462;-64
2020/12/31 05:33:29;;;;;;;2.77;2.10;;;0.50;99.90;;;;;;4993768;28;20470;-64
2020/12/31 05:36:16;;;;;;;2.93;2.30;;;0.60;99.90;;;;;;4993935;28;20405;-64
2020/12/31 05:38:43;;;;;;;3.70;2.47;;;0.60;99.90;;;;;;4993544;28;20916;-67
2020/12/31 05:41:10;;;;;;;3.50;2.40;;;0.50;99.90;;;;;;4993573;28;20452;-67
2020/12/31 05:43:39;;;;;;;3.17;2.30;;;0.50;99.90;;;;;;4993712;28;20795;-67
2020/12/31 05:46:11;;;;;;;3.80;2.00;;;0.60;99.90;;;;;;4993459;28;20477;-64
2020/12/31 05:48:38;;;;;;;3.10;2.33;;;0.50;99.90;;;;;;4994031;28;20444;-64
2020/12/31 05:51:21;;;;;;;5.10;2.80;;;0.50;99.90;;;;;;4994020;28;20971;-64
2020/12/31 05:53:51;;;;;;;3.47;2.53;;;0.50;99.90;;;;;;4997532;28;20459;-64
2020/12/31 05:56:19;;;;;;;2.77;2.57;;;0.60;99.90;;;;;;4997615;28;20802;-66
2020/12/31 05:58:50;;;;;;;2.40;2.20;;;0.60;99.90;;;;;;4997281;28;20423;-67
2020/12/31 06:01:18;;;;;;;2.17;1.97;;;0.70;99.90;;;;;;4997415;28;20407;-68
2020/12/31 06:03:49;;;;;;;2.93;2.27;;;0.70;99.90;;;;;;4997275;28;20450;-70
2020/12/31 06:06:20;;;;;;;2.60;2.20;;;0.70;99.90;;;;;;4998288;28;20448;-69
2020/12/31 06:09:02;;;;;;;5.63;2.60;;;0.70;99.90;;;;;;4997536;28;20427;-68
2020/12/31 06:11:38;;;;;;;4.30;2.20;;;0.70;99.90;;;;;;4996901;28;20799;-68
2020/12/31 06:14:06;;;;;;;4.10;2.90;;;0.70;99.90;;;;;;4996647;28;20533;-68
2020/12/31 06:16:39;;;;;;;3.20;2.60;;;0.80;99.90;;;;;;4996943;28;20448;-68
2020/12/31 06:19:28;;;;;;;5.60;3.20;;;0.80;99.90;;;;;;4997224;28;20875;-68
2020/12/31 06:22:00;;;;;;;4.20;2.80;;;0.80;99.90;;;;;;4996773;28;20439;-69
2020/12/31 06:24:34;;;;;;;5.90;3.20;;;0.90;99.90;;;;;;4996948;28;20456;-68
2020/12/31 06:27:11;;;;;;;3.87;2.33;;;0.90;99.90;;;;;;4996959;28;20462;-68
2020/12/31 06:29:44;;;;;;;3.40;2.37;;;0.90;99.90;;;;;;4996289;28;20434;-68
2020/12/31 06:32:16;;;;;;;4.17;2.67;;;1.00;99.90;;;;;;4997449;28;20462;-68
2020/12/31 06:34:43;;;;;;;2.77;2.00;;;1.00;99.90;;;;;;4996860;28;20454;-67
2020/12/31 06:37:10;;;;;;;3.80;3.10;;;1.00;99.90;;;;;;4988596;28;20444;-68
2020/12/31 06:39:37;;;;;;;3.27;2.70;;;0.90;99.90;;;;;;4996195;28;20456;-68
2020/12/31 06:42:03;;;;;;;3.27;2.73;;;0.90;99.90;;;;;;4996439;28;20419;-67
2020/12/31 06:44:31;;;;;;;2.43;2.23;;;0.90;99.90;;;;;;4996352;28;20459;-68
2020/12/31 06:46:58;;;;;;;3.70;3.10;;;0.90;99.90;;;;;;4996129;28;20477;-69
2020/12/31 06:49:51;;;;;;;3.40;2.60;;;1.00;99.90;;;;;;4996302;28;20419;-68
2020/12/31 06:52:22;;;;;;;2.80;2.60;;;1.00;99.90;;;;;;4996274;28;20477;-67
2020/12/31 06:54:49;;;;;;;2.37;2.17;;;0.90;99.90;;;;;;4995929;28;20850;-68
2020/12/31 06:57:36;;;;;;;2.27;2.07;;;0.90;99.90;;;;;;4996237;28;20455;-67
2020/12/31 07:00:03;;;;;;;5.00;2.80;;;0.90;99.90;;;;;;4996425;28;20399;-68
2020/12/31 07:02:42;;;;;;;5.27;2.57;;;0.90;99.90;;;;;;4995296;28;20487;-68
2020/12/31 07:05:19;;;;;;;3.10;2.40;;;0.90;99.90;;;;;;4996115;28;20475;-67
2020/12/31 07:07:46;;;;;;;2.97;2.23;;;1.00;99.90;;;;;;4996124;28;20429;-68
2020/12/31 07:10:12;;;;;;;3.10;2.40;;;0.90;99.90;;;;;;4995980;28;20448;-67
2020/12/31 07:12:40;;;;;;;2.40;2.20;;;0.90;99.90;;;;;;4995607;28;21031;-68
2020/12/31 07:15:08;;;;;;;3.57;2.23;;;0.90;99.90;;;;;;4995790;28;20480;-67
2020/12/31 07:17:37;;;;;;;3.63;2.50;;;1.00;99.90;;;;;;4996515;28;20448;-68
2020/12/31 07:20:04;;;;;;;4.70;3.37;;;1.10;99.90;;;;;;4995892;28;20448;-68
2020/12/31 07:22:30;;;;;;;2.67;2.47;;;1.00;99.90;;;;;;4995854;28;20807;-68
2020/12/31 07:25:01;;;;;;;4.00;2.70;;;1.10;99.90;;;;;;4995944;28;20810;-68
2020/12/31 07:27:30;;;;;;;3.10;2.53;;;1.30;99.90;;;;;;4995958;28;20432;-64
2020/12/31 07:30:01;;;;;;;6.73;3.40;;;1.30;99.90;;;;;;4995572;28;20948;-68
2020/12/31 07:32:47;;;;;;;3.00;2.70;;;1.20;99.90;;;;;;4995249;28;20483;-68
2020/12/31 07:35:34;;;;;;;4.20;2.70;;;1.20;99.90;;;;;;4995546;28;20476;-68
2020/12/31 07:38:02;;;;;;;5.50;3.17;;;1.10;99.90;;;;;;4995126;28;20883;-68
2020/12/31 07:40:40;;;;;;;4.53;2.43;;;1.10;99.90;;;;;;4995366;28;20444;-69
2020/12/31 07:43:08;;;;;;;5.03;2.77;;;1.10;99.90;;;;;;4995296;28;20550;-68
2020/12/31 07:45:35;;;;;;;2.67;2.20;;;1.20;99.90;;;;;;4995155;28;20465;-67
2020/12/31 07:48:03;;;;;;;3.47;2.87;;;1.20;99.90;;;;;;4995224;28;20443;-69
2020/12/31 07:50:30;;;;;;;3.00;2.70;;;1.30;99.90;;;;;;4995177;28;20437;-69
2020/12/31 07:52:58;;;;;;;3.77;2.63;;;1.40;99.90;;;;;;4995354;28;20472;-69
2020/12/31 07:55:25;;;;;;;5.40;3.10;;;1.30;99.90;;;;;;4995092;28;20404;-69
2020/12/31 07:57:51;;;;;;;5.07;2.87;;;1.40;99.90;;;;;;4995250;28;20403;-69
2020/12/31 08:00:19;;;;;;;5.50;3.70;;;1.40;99.90;;;;;;4994823;28;20407;-69
2020/12/31 08:02:49;;;;;;;3.70;2.87;;;1.40;99.90;;;;;;4994998;28;20870;-69
2020/12/31 08:05:18;;;;;;;3.37;3.07;;;1.50;99.90;;;;;;4994900;28;20429;-65
2020/12/31 08:07:45;;;;;;;3.57;3.03;;;1.60;99.90;;;;;;4994897;28;20987;-64
2020/12/31 08:10:11;;;;;;;3.40;2.83;;;1.60;99.90;;;;;;4987264;28;20424;-65
2020/12/31 08:12:39;;;;;;;3.43;2.97;;;1.60;99.90;;;;;;4994955;28;20460;-65
2020/12/31 08:15:07;;;;;;;3.93;2.63;;;1.60;99.90;;;;;;4994342;28;20991;-64
2020/12/31 08:17:33;;;;;;;2.93;2.60;;;1.60;99.90;;;;;;4994477;28;20908;-69
2020/12/31 08:20:07;;;;;;;3.47;2.37;;;1.70;99.90;;;;;;4994630;28;20495;-69
2020/12/31 08:22:40;;;;;;;3.97;2.90;;;1.70;99.90;;;;;;4994692;28;20473;-69
2020/12/31 08:25:11;;;;;;;7.50;3.50;;;1.70;99.90;;;;;;4994558;28;20436;-69
2020/12/31 08:27:39;;;;;;;2.80;2.43;;;1.70;99.90;;;;;;4994568;28;20463;-69
2020/12/31 08:30:07;;;;;;;3.83;2.90;;;1.80;99.90;;;;;;4994480;28;20479;-69
2020/12/31 08:32:51;;;;;;;3.57;2.67;;;1.90;99.90;;;;;;4994363;28;20465;-69
2020/12/31 08:35:23;;;;;;;4.80;3.23;;;1.90;99.90;;;;;;4994368;28;20809;-69
2020/12/31 08:38:05;;;;;;;2.83;2.40;;;1.90;99.90;;;;;;4994450;28;20423;-69
2020/12/31 08:40:33;;;;;;;3.93;3.20;;;2.00;99.90;;;;;;4994049;28;20779;-69
2020/12/31 08:43:00;;;;;;;5.00;2.87;;;2.00;99.90;;;;;;4994003;28;20873;-69
2020/12/31 08:45:28;;;;;;;4.23;3.33;;;2.00;99.90;;;;;;4993994;28;20443;-69
2020/12/31 08:48:12;;;;;;;3.17;2.70;;;1.90;99.90;;;;;;4994349;28;20423;-69
2020/12/31 08:50:39;;;;;;;7.23;3.70;;;1.90;99.90;;;;;;4994033;28;20444;-69
2020/12/31 08:53:06;;;;;;;3.30;2.57;;;1.90;99.90;;;;;;4994019;28;20482;-70
2020/12/31 08:55:35;;;;;;;3.10;2.33;;;1.80;99.90;;;;;;4993983;28;20447;-69
2020/12/31 08:58:12;;;;;;;4.90;3.30;;;1.90;99.90;;;;;;4993638;28;20885;-70
2020/12/31 09:00:39;;;;;;;3.50;3.10;;;2.10;99.90;;;;;;4994053;28;20444;-69
2020/12/31 09:03:05;;;;;;;4.67;3.77;;;2.20;99.90;;;;;;4993878;28;20479;-66
2020/12/31 09:05:31;;;;;;;6.27;3.60;;;2.10;99.90;;;;;;4994209;28;20784;-65
2020/12/31 09:08:02;;;;;;;4.10;3.10;;;2.10;99.90;;;;;;4994345;28;20445;-65
2020/12/31 09:10:32;;;;;;;4.00;2.73;;;2.10;99.90;;;;;;4993779;28;20425;-70
2020/12/31 09:12:59;;;;;;;4.63;3.43;;;2.10;99.90;;;;;;4993678;28;20435;-69
2020/12/31 09:15:25;;;;;;;4.73;3.93;;;2.30;99.90;;;;;;4993428;28;20483;-69
2020/12/31 09:17:52;;;;;;;2.60;2.40;;;2.40;99.90;;;;;;4993675;28;20518;-69
2020/12/31 09:20:20;;;;;;;2.60;2.40;;;2.60;99.90;;;;;;4993699;28;20502;-69
2020/12/31 09:22:46;;;;;;;4.63;3.37;;;2.70;99.90;;;;;;4993694;28;20843;-69
2020/12/31 09:25:13;;;;;;;4.83;2.67;;;2.60;99.90;;;;;;4993452;28;20448;-69
2020/12/31 09:27:41;;;;;;;4.20;3.77;;;2.70;99.90;;;;;;4992939;28;20944;-69
2020/12/31 09:30:10;;;;;;;3.70;2.87;;;2.60;99.90;;;;;;4993799;28;20445;-69
2020/12/31 09:32:36;;;;;;;3.30;2.90;;;2.60;99.90;;;;;;4993358;28;20854;-70
2020/12/31 09:35:03;;;;;;;2.67;2.47;;;2.60;99.90;;;;;;4993452;28;20481;-70
2020/12/31 09:37:29;;;;;;;4.10;3.60;;;2.70;99.90;;;;;;4993533;28;20448;-69
2020/12/31 09:39:56;;;;;;;3.53;3.20;;;2.70;99.90;;;;;;4993630;28;20451;-70
2020/12/31 09:42:22;;;;;;;3.80;3.07;;;2.70;99.90;;;;;;4993620;28;20439;-69
2020/12/31 09:44:49;;;;;;;4.07;3.40;;;2.70;99.90;;;;;;4993142;28;20952;-69
2020/12/31 09:47:15;;;;;;;4.23;3.30;;;2.80;99.90;;;;;;4993279;28;20476;-70
2020/12/31 09:49:41;;;;;;;3.53;3.20;;;2.80;99.90;;;;;;4993411;28;20823;-69
2020/12/31 09:52:07;;;;;;;3.50;3.20;;;2.80;99.90;;;;;;4993542;28;20469;-69
2020/12/31 09:54:34;;;;;;;4.57;2.90;;;2.80;99.90;;;;;;4993300;28;20484;-70
2020/12/31 09:57:00;;;;;;;5.27;3.87;;;2.80;99.90;;;;;;4993044;28;20455;-70
2020/12/31 09:59:26;;;;;;;4.47;3.10;;;2.90;99.90;;;;;;4993317;28;20453;-69
2020/12/31 10:01:53;;;;;;;3.87;3.57;;;3.00;99.90;;;;;;4993357;28;20452;-69
2020/12/31 10:04:19;;;;;;;3.87;3.10;;;3.20;99.90;;;;;;4993646;28;20445;-69
2020/12/31 10:06:46;;;;;;;3.03;2.83;;;3.50;99.90;;;;;;4993402;28;20824;-70
2020/12/31 10:09:14;;;;;;;4.90;3.60;;;4.00;99.90;;;;;;4993495;28;20452;-70
2020/12/31 10:11:45;;;;;;;3.80;3.10;;;4.20;99.90;;;;;;4993381;28;20854;-70
2020/12/31 10:14:11;;;;;;;3.13;2.80;;;4.30;99.90;;;;;;4992861;28;20484;-69
2020/12/31 10:16:37;;;;;;;4.13;3.63;;;4.20;99.90;;;;;;4993402;28;20449;-70
2020/12/31 10:19:04;;;;;;;5.43;4.00;;;4.10;99.90;;;;;;4993245;28;20423;-69
2020/12/31 10:21:30;;;;;;;4.60;3.80;;;3.90;99.90;;;;;;4993300;28;20794;-69
2020/12/31 10:23:57;;;;;;;4.70;3.30;;;3.70;99.90;;;;;;4993170;28;20465;-70
2020/12/31 10:26:23;;;;;;;3.83;3.40;;;3.50;99.90;;;;;;4992906;28;20976;-69
2020/12/31 10:28:49;;;;;;;3.67;3.10;;;3.30;99.90;;;;;;4993229;28;20456;-69
2020/12/31 10:31:15;;;;;;;6.23;3.57;;;3.20;99.90;;;;;;4992819;28;20445;-68
2020/12/31 10:33:41;;;;;;;3.80;3.30;;;3.00;99.90;;;;;;4992914;28;20466;-68
2020/12/31 10:36:10;;;;;;;4.80;3.20;;;2.80;99.90;;;;;;4993081;28;20449;-68
2020/12/31 10:38:38;;;;;;;3.17;2.80;;;2.60;99.90;;;;;;4995711;28;20448;-67
2020/12/31 10:41:05;;;;;;;3.73;2.70;;;2.50;99.90;;;;;;4996436;28;20452;-67
2020/12/31 10:43:31;;;;;;;5.13;2.07;;;2.40;99.90;;;;;;4997258;28;20447;-67
2020/12/31 10:45:58;;;;;;;2.73;2.40;;;2.40;99.90;;;;;;4996510;28;20480;-67
2020/12/31 10:48:24;;;;;;;4.13;2.43;;;2.40;99.90;;;;;;4996643;28;20448;-68
2020/12/31 10:50:50;;;;;;;4.27;2.90;;;2.40;99.90;;;;;;4996695;28;20433;-68
2020/12/31 10:53:17;;;;;;;5.27;3.40;;;2.50;99.90;;;;;;4996153;28;20491;-68
2020/12/31 10:55:43;;;;;;;3.97;3.30;;;2.60;99.90;;;;;;4996563;28;20435;-68
2020/12/31 10:58:10;;;;;;;7.83;3.77;;;2.70;99.90;;;;;;4988475;28;20457;-69
2020/12/31 11:00:36;;;;;;;4.77;3.40;;;2.80;99.90;;;;;;4996467;28;20433;-69
2020/12/31 11:03:02;;;;;;;5.70;3.63;;;2.80;99.90;;;;;;4995403;28;20468;-65
2020/12/31 11:05:28;;;;;;;4.40;3.10;;;2.90;99.90;;;;;;5123378;23;20555;-69
2020/12/31 11:07:54;;;;;;;3.07;2.77;;;3.10;99.90;;;;;;5015624;28;20440;-70
2020/12/31 11:10:21;;;;;;;3.43;2.97;;;3.30;99.90;;;;;;5015850;28;20444;-69
2020/12/31 11:12:47;;;;;;;3.80;3.40;;;3.60;99.90;;;;;;5015469;28;20438;-65
2020/12/31 11:15:14;;;;;;;4.00;3.10;;;3.60;99.90;;;;;;5015421;28;20486;-69
2020/12/31 11:17:40;;;;;;;3.97;3.17;;;3.70;99.90;;;;;;5015712;28;20455;-70
2020/12/31 11:20:06;;;;;;;3.43;2.70;;;3.60;99.90;;;;;;5015900;28;20454;-70
2020/12/31 11:22:32;;;;;;;2.80;2.40;;;3.70;99.90;;;;;;5015557;28;20563;-69
2020/12/31 11:24:58;;;;;;;3.67;3.27;;;3.50;99.90;;;;;;5015280;28;20803;-70
2020/12/31 11:27:25;;;;;;;3.90;3.17;;;3.40;99.90;;;;;;5015754;28;20447;-69
2020/12/31 11:29:51;;;;;;;2.33;2.13;;;3.40;99.90;;;;;;5015470;28;20451;-68
2020/12/31 11:32:18;;;;;;;2.90;2.43;;;3.40;99.90;;;;;;5015382;28;20467;-65
2020/12/31 11:34:44;;;;;;;3.10;2.80;;;3.20;99.90;;;;;;5015355;28;20487;-65
2020/12/31 11:37:10;;;;;;;3.37;2.20;;;3.30;99.90;;;;;;5015391;28;20461;-64
2020/12/31 11:39:36;;;;;;;3.50;2.73;;;3.40;99.90;;;;;;5015323;28;20792;-69
2020/12/31 11:42:03;;;;;;;3.67;3.10;;;3.50;99.90;;;;;;5015174;28;20822;-69
2020/12/31 11:44:30;;;;;;;3.33;3.03;;;3.70;99.90;;;;;;5015350;28;20800;-70
2020/12/31 11:46:58;;;;;;;3.20;2.77;;;3.90;99.90;;;;;;5015254;28;20414;-66
2020/12/31 11:49:25;;;;;;;3.43;2.77;;;4.20;99.90;;;;;;5014193;28;20452;-66
2020/12/31 11:51:56;;;;;;;4.27;3.47;;;4.40;99.90;;;;;;5014758;28;20406;-70
2020/12/31 11:54:23;;;;;;;3.07;2.87;;;4.40;99.90;;;;;;5014846;28;20505;-70
2020/12/31 11:56:49;;;;;;;3.00;2.73;;;4.40;99.90;;;;;;5014991;28;20431;-70
2020/12/31 12:01:52;;;;;;;3.37;3.03;;;4.40;99.90;;;;;;5073783;23;20994;-66
2020/12/31 12:04:19;;;;;;;3.23;2.53;;;4.20;99.90;;;;;;4975871;28;20433;-66
2020/12/31 12:06:49;;;;;;;3.43;3.13;;;4.10;99.90;;;;;;4975849;28;20430;-67
2020/12/31 12:09:16;;;;;;;4.93;3.37;;;3.80;99.90;;;;;;4995306;28;20428;-66
2020/12/31 12:11:42;;;;;;;3.60;2.70;;;3.70;99.90;;;;;;4995307;28;20445;-67
2020/12/31 12:14:09;;;;;;;3.97;3.03;;;3.80;99.90;;;;;;4994694;28;20517;-69
2020/12/31 12:16:35;;;;;;;3.77;2.53;;;3.80;99.90;;;;;;4994997;28;20955;-67
2020/12/31 12:19:02;;;;;;;5.13;3.00;;;3.80;99.90;;;;;;4995188;28;20437;-66
2020/12/31 12:21:28;;;;;;;5.23;3.03;;;3.70;99.90;;;;;;4994974;28;20407;-66
2020/12/31 12:23:55;;;;;;;4.83;2.30;;;3.70;99.90;;;;;;4994909;28;20471;-66
2020/12/31 12:26:21;;;;;;;2.83;2.60;;;3.70;99.90;;;;;;4994618;28;20847;-66
2020/12/31 12:28:47;;;;;;;3.40;2.67;;;3.60;99.90;;;;;;4995127;28;20428;-66
2020/12/31 12:31:13;;;;;;;4.00;2.97;;;3.70;99.90;;;;;;4994897;28;20449;-66
2020/12/31 12:33:40;;;;;;;3.43;2.33;;;3.70;99.90;;;;;;4994712;28;20469;-65
2020/12/31 12:36:07;;;;;;;2.60;2.40;;;3.70;99.90;;;;;;4995498;28;20504;-68
2020/12/31 12:38:33;;;;;;;2.80;2.60;;;3.60;99.90;;;;;;4994746;28;20512;-67
2020/12/31 12:41:00;;;;;;;2.53;2.33;;;3.70;99.90;;;;;;4994637;28;20440;-68
2020/12/31 12:43:26;;;;;;;3.73;3.00;;;3.50;99.90;;;;;;4994534;28;20479;-68
2020/12/31 12:45:52;;;;;;;2.73;2.50;;;3.60;99.90;;;;;;4994585;28;20429;-68
2020/12/31 12:48:18;;;;;;;2.73;2.40;;;3.60;99.90;;;;;;4994542;28;20435;-69
2020/12/31 12:50:44;;;;;;;3.30;3.00;;;3.60;99.90;;;;;;4995195;28;20444;-69
2020/12/31 12:53:11;;;;;;;3.17;2.30;;;3.60;99.90;;;;;;4994380;28;20468;-69
2020/12/31 12:55:38;;;;;;;3.63;3.03;;;3.60;99.90;;;;;;4994383;28;20468;-68
2020/12/31 12:58:04;;;;;;;5.03;4.03;;;3.70;99.90;;;;;;4994065;28;20582;-68
2020/12/31 13:00:30;;;;;;;3.20;2.47;;;3.60;99.90;;;;;;4993211;28;21006;-67
2020/12/31 13:02:56;;;;;;;3.70;3.27;;;3.60;99.90;;;;;;4993985;28;20468;-67